Terminal Aerodrome Forecast
Issued by NWS Boston, MA

Current Version | Previous Version | Text Only | Print | Product List | Glossary On
Versions: 1 2 3 4 5 6 7 8 9 10 11 12 13 14 15 16 17 18 19 20 21 22 23 24 25 26 27 28 29 30 31 32 33 34 35 36 37 38 39 40 41 42 43 44 45 46 47 48
606
FTUS41 KBOX 251936 AAA
TAFBDL
TAF AMD
KBDL 251936Z 2520/2624 19010G18KT 5SM -SHRA BKN045 OVC200
     FM252100 23005KT P6SM VCSH BKN050
     FM260000 23007KT 4SM TSRA OVC045CB
     FM260200 25004KT P6SM BKN250
     FM260500 VRB03KT 5SM BR FEW250
     FM261000 26004KT 4SM BR SKC
     FM261100 27004KT P6SM SKC
     FM261600 29008KT P6SM SKC=

USA.gov is the U.S. government's official web portal to all federal, state and local government web resources and services.